sensor_id;sensor_type;location;lat;lon;timestamp;temperature;humidity
33476;DHT22;19814;48.224;11.422;2023-11-19T00:00:31;4.70;99.90
33476;DHT22;19814;48.224;11.422;2023-11-19T00:02:57;4.60;99.90
33476;DHT22;19814;48.224;11.422;2023-11-19T00:05:22;4.60;99.90
33476;DHT22;19814;48.224;11.422;2023-11-19T00:07:48;4.70;99.90
33476;DHT22;19814;48.224;11.422;2023-11-19T00:10:14;4.70;99.90
33476;DHT22;19814;48.224;11.422;2023-11-19T00:12:44;4.80;99.90
33476;DHT22;19814;48.224;11.422;2023-11-19T00:15:10;4.80;99.90
33476;DHT22;19814;48.224;11.422;2023-11-19T00:17:39;4.90;99.90
33476;DHT22;19814;48.224;11.422;2023-11-19T00:20:06;4.90;99.90
33476;DHT22;19814;48.224;11.422;2023-11-19T00:22:31;4.90;99.90
33476;DHT22;19814;48.224;11.422;2023-11-19T00:24:58;5.00;99.90
33476;DHT22;19814;48.224;11.422;2023-11-19T00:27:23;5.10;99.90
33476;DHT22;19814;48.224;11.422;2023-11-19T00:29:49;5.10;99.90
33476;DHT22;19814;48.224;11.422;2023-11-19T00:32:14;5.10;99.90
33476;DHT22;19814;48.224;11.422;2023-11-19T00:34:40;5.10;99.90
33476;DHT22;19814;48.224;11.422;2023-11-19T00:37:06;5.20;99.90
33476;DHT22;19814;48.224;11.422;2023-11-19T00:39:32;5.30;99.90
33476;DHT22;19814;48.224;11.422;2023-11-19T00:41:58;5.40;99.90
33476;DHT22;19814;48.224;11.422;2023-11-19T00:44:23;5.50;99.90
33476;DHT22;19814;48.224;11.422;2023-11-19T00:46:48;5.60;99.90
33476;DHT22;19814;48.224;11.422;2023-11-19T00:49:14;5.60;99.90
33476;DHT22;19814;48.224;11.422;2023-11-19T00:51:40;5.60;99.90
33476;DHT22;19814;48.224;11.422;2023-11-19T00:54:06;5.50;99.90
33476;DHT22;19814;48.224;11.422;2023-11-19T00:56:31;5.60;99.90
33476;DHT22;19814;48.224;11.422;2023-11-19T00:58:57;5.60;99.90
33476;DHT22;19814;48.224;11.422;2023-11-19T01:01:22;5.60;99.90
33476;DHT22;19814;48.224;11.422;2023-11-19T01:03:48;5.70;99.90
33476;DHT22;19814;48.224;11.422;2023-11-19T01:06:13;5.70;99.90
33476;DHT22;19814;48.224;11.422;2023-11-19T01:08:42;5.70;99.90
33476;DHT22;19814;48.224;11.422;2023-11-19T01:11:07;5.70;99.90
33476;DHT22;19814;48.224;11.422;2023-11-19T01:13:33;5.70;99.90
33476;DHT22;19814;48.224;11.422;2023-11-19T01:15:59;5.80;99.90
33476;DHT22;19814;48.224;11.422;2023-11-19T01:18:24;5.90;99.90
33476;DHT22;19814;48.224;11.422;2023-11-19T01:20:50;6.00;99.90
33476;DHT22;19814;48.224;11.422;2023-11-19T01:23:15;5.90;99.90
33476;DHT22;19814;48.224;11.422;2023-11-19T01:25:40;5.90;99.90
33476;DHT22;19814;48.224;11.422;2023-11-19T01:28:06;5.90;99.90
33476;DHT22;19814;48.224;11.422;2023-11-19T01:30:31;5.90;99.90
33476;DHT22;19814;48.224;11.422;2023-11-19T01:32:57;5.90;99.90
33476;DHT22;19814;48.224;11.422;2023-11-19T01:35:22;6.00;99.90
33476;DHT22;19814;48.224;11.422;2023-11-19T01:37:48;6.00;99.90
33476;DHT22;19814;48.224;11.422;2023-11-19T01:40:19;6.00;99.90
33476;DHT22;19814;48.224;11.422;2023-11-19T01:42:45;6.10;99.90
33476;DHT22;19814;48.224;11.422;2023-11-19T01:45:10;6.10;99.90
33476;DHT22;19814;48.224;11.422;2023-11-19T01:47:45;6.20;99.90
33476;DHT22;19814;48.224;11.422;2023-11-19T01:50:10;6.30;99.90
33476;DHT22;19814;48.224;11.422;2023-11-19T01:52:36;6.40;99.90
33476;DHT22;19814;48.224;11.422;2023-11-19T01:55:03;6.50;99.90
33476;DHT22;19814;48.224;11.422;2023-11-19T01:57:28;6.60;99.90
33476;DHT22;19814;48.224;11.422;2023-11-19T01:59:54;6.70;99.90
33476;DHT22;19814;48.224;11.422;2023-11-19T02:02:19;6.80;99.90
33476;DHT22;19814;48.224;11.422;2023-11-19T02:04:46;6.90;99.90
33476;DHT22;19814;48.224;11.422;2023-11-19T02:07:13;7.00;99.90
33476;DHT22;19814;48.224;11.422;2023-11-19T02:09:42;7.20;99.90
33476;DHT22;19814;48.224;11.422;2023-11-19T02:12:07;7.30;99.90
33476;DHT22;19814;48.224;11.422;2023-11-19T02:14:33;7.50;99.90
33476;DHT22;19814;48.224;11.422;2023-11-19T02:16:58;7.60;99.90
33476;DHT22;19814;48.224;11.422;2023-11-19T02:19:24;7.60;99.90
33476;DHT22;19814;48.224;11.422;2023-11-19T02:21:49;7.70;99.90
33476;DHT22;19814;48.224;11.422;2023-11-19T02:24:15;7.70;99.90
33476;DHT22;19814;48.224;11.422;2023-11-19T02:26:44;7.80;99.90
33476;DHT22;19814;48.224;11.422;2023-11-19T02:29:13;7.90;99.90
33476;DHT22;19814;48.224;11.422;2023-11-19T02:31:38;8.10;99.90
33476;DHT22;19814;48.224;11.422;2023-11-19T02:34:04;8.20;99.90
33476;DHT22;19814;48.224;11.422;2023-11-19T02:36:29;8.30;99.90
33476;DHT22;19814;48.224;11.422;2023-11-19T02:38:55;8.30;99.90
33476;DHT22;19814;48.224;11.422;2023-11-19T02:41:20;8.40;99.90
33476;DHT22;19814;48.224;11.422;2023-11-19T02:43:46;8.50;99.90
33476;DHT22;19814;48.224;11.422;2023-11-19T02:46:13;8.60;99.90
33476;DHT22;19814;48.224;11.422;2023-11-19T02:48:39;8.60;99.90
33476;DHT22;19814;48.224;11.422;2023-11-19T02:51:05;8.70;99.90
33476;DHT22;19814;48.224;11.422;2023-11-19T02:53:34;8.70;99.90
33476;DHT22;19814;48.224;11.422;2023-11-19T02:56:00;8.70;99.90
33476;DHT22;19814;48.224;11.422;2023-11-19T02:58:42;8.80;99.90
33476;DHT22;19814;48.224;11.422;2023-11-19T03:01:08;8.80;99.90
33476;DHT22;19814;48.224;11.422;2023-11-19T03:03:48;8.90;99.90
33476;DHT22;19814;48.224;11.422;2023-11-19T03:06:19;8.90;99.90
33476;DHT22;19814;48.224;11.422;2023-11-19T03:08:44;9.00;99.90
33476;DHT22;19814;48.224;11.422;2023-11-19T03:11:10;9.00;99.90
33476;DHT22;19814;48.224;11.422;2023-11-19T03:13:35;9.00;99.90
33476;DHT22;19814;48.224;11.422;2023-11-19T03:16:01;9.10;99.90
33476;DHT22;19814;48.224;11.422;2023-11-19T03:18:26;9.10;99.90
33476;DHT22;19814;48.224;11.422;2023-11-19T03:20:53;9.10;99.90
33476;DHT22;19814;48.224;11.422;2023-11-19T03:23:19;9.20;99.90
33476;DHT22;19814;48.224;11.422;2023-11-19T03:25:44;9.20;99.90
33476;DHT22;19814;48.224;11.422;2023-11-19T03:28:10;9.20;99.90
33476;DHT22;19814;48.224;11.422;2023-11-19T03:30:36;9.20;99.90
33476;DHT22;19814;48.224;11.422;2023-11-19T03:33:02;9.20;99.90
33476;DHT22;19814;48.224;11.422;2023-11-19T03:35:27;9.30;99.90
33476;DHT22;19814;48.224;11.422;2023-11-19T03:37:53;9.30;99.90
33476;DHT22;19814;48.224;11.422;2023-11-19T03:40:19;9.30;99.90
33476;DHT22;19814;48.224;11.422;2023-11-19T03:42:47;9.30;99.90
33476;DHT22;19814;48.224;11.422;2023-11-19T03:45:13;9.40;99.90
33476;DHT22;19814;48.224;11.422;2023-11-19T03:47:39;9.40;99.90
33476;DHT22;19814;48.224;11.422;2023-11-19T03:50:05;9.40;99.90
33476;DHT22;19814;48.224;11.422;2023-11-19T03:52:31;9.40;99.90
33476;DHT22;19814;48.224;11.422;2023-11-19T03:54:56;9.40;99.90
33476;DHT22;19814;48.224;11.422;2023-11-19T03:57:22;9.40;99.90
33476;DHT22;19814;48.224;11.422;2023-11-19T03:59:48;9.30;99.90
33476;DHT22;19814;48.224;11.422;2023-11-19T04:02:13;9.30;99.90
33476;DHT22;19814;48.224;11.422;2023-11-19T04:04:39;9.40;99.90
33476;DHT22;19814;48.224;11.422;2023-11-19T04:07:04;9.30;99.90
33476;DHT22;19814;48.224;11.422;2023-11-19T04:09:30;9.30;99.90
33476;DHT22;19814;48.224;11.422;2023-11-19T04:11:58;9.30;99.90
33476;DHT22;19814;48.224;11.422;2023-11-19T04:14:23;9.40;99.90
33476;DHT22;19814;48.224;11.422;2023-11-19T04:16:49;9.30;99.90
33476;DHT22;19814;48.224;11.422;2023-11-19T04:19:14;9.30;99.90
33476;DHT22;19814;48.224;11.422;2023-11-19T04:21:40;9.40;99.90
33476;DHT22;19814;48.224;11.422;2023-11-19T04:24:06;9.40;99.90
33476;DHT22;19814;48.224;11.422;2023-11-19T04:26:32;9.40;99.90
33476;DHT22;19814;48.224;11.422;2023-11-19T04:28:57;9.40;99.90
33476;DHT22;19814;48.224;11.422;2023-11-19T04:31:28;9.40;99.90
33476;DHT22;19814;48.224;11.422;2023-11-19T04:33:53;9.40;99.90
33476;DHT22;19814;48.224;11.422;2023-11-19T04:36:20;9.40;99.90
33476;DHT22;19814;48.224;11.422;2023-11-19T04:38:49;9.40;99.90
33476;DHT22;19814;48.224;11.422;2023-11-19T04:41:15;9.40;99.90
33476;DHT22;19814;48.224;11.422;2023-11-19T04:43:40;9.50;99.90
33476;DHT22;19814;48.224;11.422;2023-11-19T04:46:06;9.50;99.90
33476;DHT22;19814;48.224;11.422;2023-11-19T04:48:31;9.50;99.90
33476;DHT22;19814;48.224;11.422;2023-11-19T04:50:56;9.50;99.90
33476;DHT22;19814;48.224;11.422;2023-11-19T04:53:22;9.50;99.90
33476;DHT22;19814;48.224;11.422;2023-11-19T04:55:47;9.50;99.90
33476;DHT22;19814;48.224;11.422;2023-11-19T04:58:13;9.60;99.90
33476;DHT22;19814;48.224;11.422;2023-11-19T05:00:38;9.60;99.90
33476;DHT22;19814;48.224;11.422;2023-11-19T05:03:04;9.60;99.90
33476;DHT22;19814;48.224;11.422;2023-11-19T05:05:29;9.60;99.90
33476;DHT22;19814;48.224;11.422;2023-11-19T05:07:55;9.60;99.90
33476;DHT22;19814;48.224;11.422;2023-11-19T05:10:20;9.60;99.90
33476;DHT22;19814;48.224;11.422;2023-11-19T05:12:46;9.70;99.90
33476;DHT22;19814;48.224;11.422;2023-11-19T05:15:11;9.60;99.90
33476;DHT22;19814;48.224;11.422;2023-11-19T05:17:37;9.60;99.90
33476;DHT22;19814;48.224;11.422;2023-11-19T05:20:04;9.70;99.90
33476;DHT22;19814;48.224;11.422;2023-11-19T05:22:30;9.70;99.90
33476;DHT22;19814;48.224;11.422;2023-11-19T05:24:55;9.70;99.90
33476;DHT22;19814;48.224;11.422;2023-11-19T05:27:21;9.70;99.90
33476;DHT22;19814;48.224;11.422;2023-11-19T05:29:47;9.70;99.90
33476;DHT22;19814;48.224;11.422;2023-11-19T05:32:12;9.70;99.90
33476;DHT22;19814;48.224;11.422;2023-11-19T05:34:38;9.70;99.90
33476;DHT22;19814;48.224;11.422;2023-11-19T05:37:03;9.70;99.90
33476;DHT22;19814;48.224;11.422;2023-11-19T05:39:30;9.70;99.90
33476;DHT22;19814;48.224;11.422;2023-11-19T05:41:56;9.70;99.90
33476;DHT22;19814;48.224;11.422;2023-11-19T05:44:21;9.70;99.90
33476;DHT22;19814;48.224;11.422;2023-11-19T05:46:47;9.70;99.90
33476;DHT22;19814;48.224;11.422;2023-11-19T05:49:12;9.70;99.90
33476;DHT22;19814;48.224;11.422;2023-11-19T05:51:38;9.70;99.90
33476;DHT22;19814;48.224;11.422;2023-11-19T05:54:06;9.70;99.90
33476;DHT22;19814;48.224;11.422;2023-11-19T05:56:32;9.70;99.90
33476;DHT22;19814;48.224;11.422;2023-11-19T05:58:58;9.70;99.90
33476;DHT22;19814;48.224;11.422;2023-11-19T06:01:25;9.70;99.90
33476;DHT22;19814;48.224;11.422;2023-11-19T06:03:51;9.70;99.90
33476;DHT22;19814;48.224;11.422;2023-11-19T06:06:17;9.60;99.90
33476;DHT22;19814;48.224;11.422;2023-11-19T06:08:42;9.70;99.90
33476;DHT22;19814;48.224;11.422;2023-11-19T06:11:09;9.70;99.90
33476;DHT22;19814;48.224;11.422;2023-11-19T06:13:38;9.70;99.90
33476;DHT22;19814;48.224;11.422;2023-11-19T06:16:03;9.80;99.90
33476;DHT22;19814;48.224;11.422;2023-11-19T06:18:29;9.70;99.90
33476;DHT22;19814;48.224;11.422;2023-11-19T06:20:56;9.80;99.90
33476;DHT22;19814;48.224;11.422;2023-11-19T06:23:22;9.70;99.90
33476;DHT22;19814;48.224;11.422;2023-11-19T06:25:47;9.80;99.90
33476;DHT22;19814;48.224;11.422;2023-11-19T06:28:13;9.80;99.90
33476;DHT22;19814;48.224;11.422;2023-11-19T06:30:38;9.80;99.90
33476;DHT22;19814;48.224;11.422;2023-11-19T06:33:04;9.80;99.90
33476;DHT22;19814;48.224;11.422;2023-11-19T06:35:29;9.80;99.90
33476;DHT22;19814;48.224;11.422;2023-11-19T06:38:02;9.80;99.90
33476;DHT22;19814;48.224;11.422;2023-11-19T06:40:28;9.90;99.90
33476;DHT22;19814;48.224;11.422;2023-11-19T06:42:54;9.90;99.90
33476;DHT22;19814;48.224;11.422;2023-11-19T06:45:20;9.90;99.90
33476;DHT22;19814;48.224;11.422;2023-11-19T06:47:45;9.90;99.90
33476;DHT22;19814;48.224;11.422;2023-11-19T06:50:11;10.00;99.90
33476;DHT22;19814;48.224;11.422;2023-11-19T06:52:37;10.00;99.90
33476;DHT22;19814;48.224;11.422;2023-11-19T06:55:03;10.00;99.90
33476;DHT22;19814;48.224;11.422;2023-11-19T06:57:29;10.00;99.90
33476;DHT22;19814;48.224;11.422;2023-11-19T06:59:57;10.00;99.90
33476;DHT22;19814;48.224;11.422;2023-11-19T07:02:22;10.10;99.90
33476;DHT22;19814;48.224;11.422;2023-11-19T07:04:48;10.10;99.90
33476;DHT22;19814;48.224;11.422;2023-11-19T07:07:13;10.10;99.90
33476;DHT22;19814;48.224;11.422;2023-11-19T07:09:40;10.10;99.90
33476;DHT22;19814;48.224;11.422;2023-11-19T07:12:06;10.10;99.90
33476;DHT22;19814;48.224;11.422;2023-11-19T07:14:31;10.20;99.90
33476;DHT22;19814;48.224;11.422;2023-11-19T07:16:57;10.20;99.90
33476;DHT22;19814;48.224;11.422;2023-11-19T07:19:22;10.20;99.90
33476;DHT22;19814;48.224;11.422;2023-11-19T07:21:48;10.30;99.90
33476;DHT22;19814;48.224;11.422;2023-11-19T07:24:13;10.30;99.90
33476;DHT22;19814;48.224;11.422;2023-11-19T07:26:42;10.30;99.90
33476;DHT22;19814;48.224;11.422;2023-11-19T07:29:08;10.40;99.90
33476;DHT22;19814;48.224;11.422;2023-11-19T07:31:34;10.40;99.90
33476;DHT22;19814;48.224;11.422;2023-11-19T07:33:59;10.40;99.90
33476;DHT22;19814;48.224;11.422;2023-11-19T07:36:25;10.40;99.90
33476;DHT22;19814;48.224;11.422;2023-11-19T07:38:50;10.40;99.90
33476;DHT22;19814;48.224;11.422;2023-11-19T07:41:16;10.50;99.90
33476;DHT22;19814;48.224;11.422;2023-11-19T07:43:44;10.50;99.90
33476;DHT22;19814;48.224;11.422;2023-11-19T07:46:12;10.50;99.90
33476;DHT22;19814;48.224;11.422;2023-11-19T07:48:40;10.50;99.90
33476;DHT22;19814;48.224;11.422;2023-11-19T07:51:07;10.60;99.90
33476;DHT22;19814;48.224;11.422;2023-11-19T07:53:33;10.60;99.90
33476;DHT22;19814;48.224;11.422;2023-11-19T07:55:58;10.60;99.90
33476;DHT22;19814;48.224;11.422;2023-11-19T07:58:26;10.60;99.90
33476;DHT22;19814;48.224;11.422;2023-11-19T08:00:52;10.70;99.90
33476;DHT22;19814;48.224;11.422;2023-11-19T08:03:17;10.70;99.90
33476;DHT22;19814;48.224;11.422;2023-11-19T08:05:44;10.70;99.90
33476;DHT22;19814;48.224;11.422;2023-11-19T08:08:10;10.80;99.90
33476;DHT22;19814;48.224;11.422;2023-11-19T08:10:35;10.90;99.90
33476;DHT22;19814;48.224;11.422;2023-11-19T08:13:01;10.90;99.90
33476;DHT22;19814;48.224;11.422;2023-11-19T08:15:26;11.00;99.90
33476;DHT22;19814;48.224;11.422;2023-11-19T08:17:52;11.00;99.90
33476;DHT22;19814;48.224;11.422;2023-11-19T08:20:17;11.10;99.90
33476;DHT22;19814;48.224;11.422;2023-11-19T08:22:43;11.10;99.90
33476;DHT22;19814;48.224;11.422;2023-11-19T08:25:08;11.10;99.90
33476;DHT22;19814;48.224;11.422;2023-11-19T08:27:34;11.10;99.90
33476;DHT22;19814;48.224;11.422;2023-11-19T08:29:59;11.20;99.90
33476;DHT22;19814;48.224;11.422;2023-11-19T08:32:25;11.20;99.90
33476;DHT22;19814;48.224;11.422;2023-11-19T08:34:51;11.20;99.90
33476;DHT22;19814;48.224;11.422;2023-11-19T08:37:16;11.20;99.90
33476;DHT22;19814;48.224;11.422;2023-11-19T08:39:46;11.20;99.90
33476;DHT22;19814;48.224;11.422;2023-11-19T08:42:12;11.20;99.90
33476;DHT22;19814;48.224;11.422;2023-11-19T08:44:37;11.20;99.90
33476;DHT22;19814;48.224;11.422;2023-11-19T08:47:02;11.30;99.90
33476;DHT22;19814;48.224;11.422;2023-11-19T08:49:28;11.30;99.90
33476;DHT22;19814;48.224;11.422;2023-11-19T08:51:53;11.40;99.90
33476;DHT22;19814;48.224;11.422;2023-11-19T08:54:19;11.40;99.90
33476;DHT22;19814;48.224;11.422;2023-11-19T08:56:46;11.40;99.90
33476;DHT22;19814;48.224;11.422;2023-11-19T08:59:12;11.40;99.90
33476;DHT22;19814;48.224;11.422;2023-11-19T09:01:37;11.50;99.90
33476;DHT22;19814;48.224;11.422;2023-11-19T09:04:03;11.50;99.90
33476;DHT22;19814;48.224;11.422;2023-11-19T09:06:29;11.50;99.90
33476;DHT22;19814;48.224;11.422;2023-11-19T09:08:55;11.50;99.90
33476;DHT22;19814;48.224;11.422;2023-11-19T09:11:25;11.60;99.90
33476;DHT22;19814;48.224;11.422;2023-11-19T09:13:51;11.60;99.90
33476;DHT22;19814;48.224;11.422;2023-11-19T09:16:16;11.70;99.90
33476;DHT22;19814;48.224;11.422;2023-11-19T09:18:42;11.70;99.90
33476;DHT22;19814;48.224;11.422;2023-11-19T09:21:07;11.80;99.90
33476;DHT22;19814;48.224;11.422;2023-11-19T09:23:33;11.90;99.90
33476;DHT22;19814;48.224;11.422;2023-11-19T09:26:04;12.00;99.90
33476;DHT22;19814;48.224;11.422;2023-11-19T09:28:30;12.10;99.90
33476;DHT22;19814;48.224;11.422;2023-11-19T09:30:56;12.10;99.90
33476;DHT22;19814;48.224;11.422;2023-11-19T09:33:21;12.20;99.90
33476;DHT22;19814;48.224;11.422;2023-11-19T09:35:46;12.10;99.90
33476;DHT22;19814;48.224;11.422;2023-11-19T09:38:15;12.10;99.90
33476;DHT22;19814;48.224;11.422;2023-11-19T09:40:40;12.10;99.90
33476;DHT22;19814;48.224;11.422;2023-11-19T09:43:06;12.00;99.90
33476;DHT22;19814;48.224;11.422;2023-11-19T09:45:32;12.00;99.90
33476;DHT22;19814;48.224;11.422;2023-11-19T09:48:03;12.00;99.90
33476;DHT22;19814;48.224;11.422;2023-11-19T09:50:29;12.00;99.90
33476;DHT22;19814;48.224;11.422;2023-11-19T09:52:55;12.10;99.90
33476;DHT22;19814;48.224;11.422;2023-11-19T09:55:20;12.20;99.90
33476;DHT22;19814;48.224;11.422;2023-11-19T09:57:46;12.40;99.90
33476;DHT22;19814;48.224;11.422;2023-11-19T10:00:13;12.70;99.90
33476;DHT22;19814;48.224;11.422;2023-11-19T10:02:40;12.80;99.90
33476;DHT22;19814;48.224;11.422;2023-11-19T10:05:07;13.00;99.90
33476;DHT22;19814;48.224;11.422;2023-11-19T10:07:33;13.20;99.90
33476;DHT22;19814;48.224;11.422;2023-11-19T10:10:04;13.40;99.90
33476;DHT22;19814;48.224;11.422;2023-11-19T10:12:30;13.70;99.90
33476;DHT22;19814;48.224;11.422;2023-11-19T10:14:56;13.90;99.90
33476;DHT22;19814;48.224;11.422;2023-11-19T10:17:33;14.50;99.90
33476;DHT22;19814;48.224;11.422;2023-11-19T10:19:58;15.00;99.90
33476;DHT22;19814;48.224;11.422;2023-11-19T10:22:24;15.30;99.90
33476;DHT22;19814;48.224;11.422;2023-11-19T10:24:51;15.10;99.90
33476;DHT22;19814;48.224;11.422;2023-11-19T10:27:17;14.90;99.90
33476;DHT22;19814;48.224;11.422;2023-11-19T10:29:46;14.70;99.90
33476;DHT22;19814;48.224;11.422;2023-11-19T10:32:12;14.50;99.90
33476;DHT22;19814;48.224;11.422;2023-11-19T10:34:37;14.50;99.90
33476;DHT22;19814;48.224;11.422;2023-11-19T10:37:05;14.50;99.90
33476;DHT22;19814;48.224;11.422;2023-11-19T10:42:15;14.30;99.90
33476;DHT22;19814;48.224;11.422;2023-11-19T10:44:41;14.60;99.90
33476;DHT22;19814;48.224;11.422;2023-11-19T10:47:07;15.50;99.90
33476;DHT22;19814;48.224;11.422;2023-11-19T10:49:33;15.80;99.90
33476;DHT22;19814;48.224;11.422;2023-11-19T10:52:00;15.60;99.90
33476;DHT22;19814;48.224;11.422;2023-11-19T10:54:26;15.50;99.90
33476;DHT22;19814;48.224;11.422;2023-11-19T10:56:54;15.70;99.90
33476;DHT22;19814;48.224;11.422;2023-11-19T10:59:21;16.00;99.90
33476;DHT22;19814;48.224;11.422;2023-11-19T11:01:48;16.60;99.90
33476;DHT22;19814;48.224;11.422;2023-11-19T11:04:14;16.70;99.90
33476;DHT22;19814;48.224;11.422;2023-11-19T11:06:40;17.00;99.90
33476;DHT22;19814;48.224;11.422;2023-11-19T11:09:06;17.20;99.90
33476;DHT22;19814;48.224;11.422;2023-11-19T11:11:37;17.00;99.90
33476;DHT22;19814;48.224;11.422;2023-11-19T11:14:03;17.10;99.90
33476;DHT22;19814;48.224;11.422;2023-11-19T11:16:30;17.00;99.90
33476;DHT22;19814;48.224;11.422;2023-11-19T11:18:56;16.60;99.90
33476;DHT22;19814;48.224;11.422;2023-11-19T11:21:23;16.10;99.90
33476;DHT22;19814;48.224;11.422;2023-11-19T11:39:39;17.70;99.90
33476;DHT22;19814;48.224;11.422;2023-11-19T11:50:10;21.10;94.20
33476;DHT22;19814;48.224;11.422;2023-11-19T11:57:53;23.60;88.70
33476;DHT22;19814;48.224;11.422;2023-11-19T12:00:38;24.60;87.60
33476;DHT22;19814;48.224;11.422;2023-11-19T12:03:04;24.90;86.30
33476;DHT22;19814;48.224;11.422;2023-11-19T12:05:30;24.70;82.50
33476;DHT22;19814;48.224;11.422;2023-11-19T12:08:04;24.20;84.70
33476;DHT22;19814;48.224;11.422;2023-11-19T12:10:32;24.00;80.10
33476;DHT22;19814;48.224;11.422;2023-11-19T12:13:04;24.00;82.70
33476;DHT22;19814;48.224;11.422;2023-11-19T12:15:31;24.30;80.40
33476;DHT22;19814;48.224;11.422;2023-11-19T12:17:56;24.30;80.30
33476;DHT22;19814;48.224;11.422;2023-11-19T12:20:22;23.60;82.20
33476;DHT22;19814;48.224;11.422;2023-11-19T12:22:48;22.00;85.60
33476;DHT22;19814;48.224;11.422;2023-11-19T12:25:15;20.60;90.00
33476;DHT22;19814;48.224;11.422;2023-11-19T12:27:42;19.40;91.80
33476;DHT22;19814;48.224;11.422;2023-11-19T12:30:08;18.90;93.60
33476;DHT22;19814;48.224;11.422;2023-11-19T12:32:40;19.60;92.90
33476;DHT22;19814;48.224;11.422;2023-11-19T12:35:07;20.40;92.00
33476;DHT22;19814;48.224;11.422;2023-11-19T12:37:46;19.90;91.70
33476;DHT22;19814;48.224;11.422;2023-11-19T12:40:13;19.40;93.00
33476;DHT22;19814;48.224;11.422;2023-11-19T12:42:39;19.20;92.10
33476;DHT22;19814;48.224;11.422;2023-11-19T12:45:05;18.90;93.00
33476;DHT22;19814;48.224;11.422;2023-11-19T12:47:30;18.60;93.90
33476;DHT22;19814;48.224;11.422;2023-11-19T12:49:59;18.20;94.50
33476;DHT22;19814;48.224;11.422;2023-11-19T12:52:24;18.30;95.00
33476;DHT22;19814;48.224;11.422;2023-11-19T12:54:50;18.20;94.60
33476;DHT22;19814;48.224;11.422;2023-11-19T12:57:16;18.00;94.80
33476;DHT22;19814;48.224;11.422;2023-11-19T12:59:42;17.70;94.80
33476;DHT22;19814;48.224;11.422;2023-11-19T13:02:08;17.30;95.70
33476;DHT22;19814;48.224;11.422;2023-11-19T13:04:33;17.00;96.10
33476;DHT22;19814;48.224;11.422;2023-11-19T13:07:00;16.80;96.80
33476;DHT22;19814;48.224;11.422;2023-11-19T13:09:26;16.60;97.20
33476;DHT22;19814;48.224;11.422;2023-11-19T13:11:52;16.40;97.10
33476;DHT22;19814;48.224;11.422;2023-11-19T13:14:18;16.20;97.70
33476;DHT22;19814;48.224;11.422;2023-11-19T13:16:44;16.00;98.50
33476;DHT22;19814;48.224;11.422;2023-11-19T13:19:12;15.80;98.80
33476;DHT22;19814;48.224;11.422;2023-11-19T13:21:37;15.80;99.00
33476;DHT22;19814;48.224;11.422;2023-11-19T13:24:03;15.70;99.20
33476;DHT22;19814;48.224;11.422;2023-11-19T13:26:29;15.50;99.30
33476;DHT22;19814;48.224;11.422;2023-11-19T13:28:54;15.40;99.70
33476;DHT22;19814;48.224;11.422;2023-11-19T13:31:20;15.40;99.90
33476;DHT22;19814;48.224;11.422;2023-11-19T13:33:45;15.50;99.90
33476;DHT22;19814;48.224;11.422;2023-11-19T13:36:11;15.50;99.70
33476;DHT22;19814;48.224;11.422;2023-11-19T13:38:36;15.50;99.90
33476;DHT22;19814;48.224;11.422;2023-11-19T13:41:02;15.50;99.90
33476;DHT22;19814;48.224;11.422;2023-11-19T13:43:28;15.30;99.90
33476;DHT22;19814;48.224;11.422;2023-11-19T13:45:54;15.20;99.90
33476;DHT22;19814;48.224;11.422;2023-11-19T13:48:19;15.00;99.90
33476;DHT22;19814;48.224;11.422;2023-11-19T13:50:45;14.90;99.90
33476;DHT22;19814;48.224;11.422;2023-11-19T13:53:10;14.80;99.90
33476;DHT22;19814;48.224;11.422;2023-11-19T13:55:36;14.60;99.90
33476;DHT22;19814;48.224;11.422;2023-11-19T13:58:01;14.60;99.90
33476;DHT22;19814;48.224;11.422;2023-11-19T14:00:26;14.60;99.90
33476;DHT22;19814;48.224;11.422;2023-11-19T14:02:52;14.60;99.90
33476;DHT22;19814;48.224;11.422;2023-11-19T14:05:17;14.50;99.90
33476;DHT22;19814;48.224;11.422;2023-11-19T14:07:43;14.50;99.90
33476;DHT22;19814;48.224;11.422;2023-11-19T14:10:09;14.40;99.90
33476;DHT22;19814;48.224;11.422;2023-11-19T14:12:39;14.50;99.90
33476;DHT22;19814;48.224;11.422;2023-11-19T14:15:05;14.40;99.90
33476;DHT22;19814;48.224;11.422;2023-11-19T14:17:40;14.40;99.90
33476;DHT22;19814;48.224;11.422;2023-11-19T14:20:06;14.40;99.90
33476;DHT22;19814;48.224;11.422;2023-11-19T14:22:41;14.50;99.90
33476;DHT22;19814;48.224;11.422;2023-11-19T14:25:08;14.50;99.90
33476;DHT22;19814;48.224;11.422;2023-11-19T14:27:35;14.50;99.90
33476;DHT22;19814;48.224;11.422;2023-11-19T14:30:02;14.50;99.90
33476;DHT22;19814;48.224;11.422;2023-11-19T14:32:27;14.60;99.90
33476;DHT22;19814;48.224;11.422;2023-11-19T14:34:53;14.50;99.90
33476;DHT22;19814;48.224;11.422;2023-11-19T14:37:18;14.50;99.90
33476;DHT22;19814;48.224;11.422;2023-11-19T14:39:44;14.40;99.90
33476;DHT22;19814;48.224;11.422;2023-11-19T14:42:09;14.30;99.90
33476;DHT22;19814;48.224;11.422;2023-11-19T14:44:35;14.30;99.90
33476;DHT22;19814;48.224;11.422;2023-11-19T14:47:01;14.20;99.90
33476;DHT22;19814;48.224;11.422;2023-11-19T14:49:27;14.10;99.90
33476;DHT22;19814;48.224;11.422;2023-11-19T14:51:53;14.00;99.90
33476;DHT22;19814;48.224;11.422;2023-11-19T14:54:18;13.90;99.90
33476;DHT22;19814;48.224;11.422;2023-11-19T14:56:44;13.90;99.90
33476;DHT22;19814;48.224;11.422;2023-11-19T14:59:10;13.80;99.90
33476;DHT22;19814;48.224;11.422;2023-11-19T15:01:35;13.80;99.90
33476;DHT22;19814;48.224;11.422;2023-11-19T15:04:01;13.70;99.90
33476;DHT22;19814;48.224;11.422;2023-11-19T15:06:26;13.70;99.90
33476;DHT22;19814;48.224;11.422;2023-11-19T15:08:52;13.60;99.90
33476;DHT22;19814;48.224;11.422;2023-11-19T15:11:18;13.50;99.90
33476;DHT22;19814;48.224;11.422;2023-11-19T15:13:43;13.50;99.90
33476;DHT22;19814;48.224;11.422;2023-11-19T15:16:09;13.40;99.90
33476;DHT22;19814;48.224;11.422;2023-11-19T15:18:39;13.30;99.90
33476;DHT22;19814;48.224;11.422;2023-11-19T15:21:04;13.30;99.90
33476;DHT22;19814;48.224;11.422;2023-11-19T15:23:30;13.30;99.90
33476;DHT22;19814;48.224;11.422;2023-11-19T15:25:55;13.30;99.90
33476;DHT22;19814;48.224;11.422;2023-11-19T15:28:21;13.20;99.90
33476;DHT22;19814;48.224;11.422;2023-11-19T15:30:47;13.20;99.90
33476;DHT22;19814;48.224;11.422;2023-11-19T15:33:12;13.10;99.90
33476;DHT22;19814;48.224;11.422;2023-11-19T15:35:37;13.10;99.90
33476;DHT22;19814;48.224;11.422;2023-11-19T15:38:04;13.10;99.90
33476;DHT22;19814;48.224;11.422;2023-11-19T15:40:30;13.00;99.90
33476;DHT22;19814;48.224;11.422;2023-11-19T15:42:56;12.90;99.90
33476;DHT22;19814;48.224;11.422;2023-11-19T15:45:22;12.90;99.90
33476;DHT22;19814;48.224;11.422;2023-11-19T15:47:49;12.90;99.90